Latest Weather Observations for Busselton Jetty

IDW60801

Issued at 7:03 am WST Saturday 31 January 2015 (issued every 30 minutes, with the page automatically refreshed every 10 minutes)

About weather observations | Map of weather stations | Latest weather observations for WA | Other Formats
Station Details ID: 009937 Name: BUSSELTON JETTY Lat: -33.63 Lon: 115.34 Height: 3.0 m
Data from the previous 72 hours. | See also: Recent months for locations in Western Australia
Date/Time
WST
Temp
°C
App
Temp
°C
Dew
Point
Rel
Hum
%
Delta-T
°C
Wind Press
QNH
hPa
Press
MSL
hPa
Rain
since 9 am
mm
Dir
 
Spd
km/h
Gust
km/h
Spd
kts
Gust
kts
31/07:00am - - - - - SE 30 37 16 20 - - -
31/06:30am - - - - - ESE 28 33 15 18 - - -
31/06:00am - - - - - ESE 32 37 17 20 - - -
31/05:30am - - - - - ESE 28 33 15 18 - - -
31/05:00am - - - - - SE 30 37 16 20 - - -
31/04:30am - - - - - SE 28 33 15 18 - - -
31/04:00am - - - - - SE 28 32 15 17 - - -
31/03:30am - - - - - SE 26 30 14 16 - - -
31/03:00am - - - - - SE 26 32 14 17 - - -
31/02:30am - - - - - SE 30 37 16 20 - - -
31/02:00am - - - - - SE 33 39 18 21 - - -
31/01:30am - - - - - SE 32 39 17 21 - - -
31/01:00am - - - - - SE 37 48 20 26 - - -
31/12:30am - - - - - SE 33 39 18 21 - - -
31/12:00am - - - - - SE 32 37 17 20 - - -
 
Date/Time
WST
Temp
°C
App
Temp
°C
Dew
Point
Rel
Hum
%
Delta-T
°C
Wind Press
QNH
hPa
Press
MSL
hPa
Rain
since 9 am
mm
Dir
 
Spd
km/h
Gust
km/h
Spd
kts
Gust
kts
30/11:30pm - - - - - SE 37 46 20 25 - - -
30/11:00pm - - - - - SE 37 48 20 26 - - -
30/10:30pm - - - - - SE 37 48 20 26 - - -
30/10:00pm - - - - - SE 35 46 19 25 - - -
30/09:30pm - - - - - SE 30 35 16 19 - - -
30/09:00pm - - - - - SE 33 44 18 24 - - -
30/08:30pm - - - - - S 22 30 12 16 - - -
30/08:00pm - - - - - S 26 32 14 17 - - -
30/07:30pm - - - - - S 30 37 16 20 - - -
30/07:00pm - - - - - SSW 30 39 16 21 - - -
30/06:30pm - - - - - SSW 32 35 17 19 - - -
30/06:00pm - - - - - SSE 26 33 14 18 - - -
30/05:30pm - - - - - SSE 24 33 13 18 - - -
30/05:00pm - - - - - SSE 22 33 12 18 - - -
30/04:30pm - - - - - SE 22 33 12 18 - - -
30/04:00pm - - - - - E 17 22 9 12 - - -
30/03:30pm - - - - - SE 24 33 13 18 - - -
30/03:00pm - - - - - SE 26 37 14 20 - - -
30/02:30pm - - - - - SE 22 37 12 20 - - -
30/02:00pm - - - - - SE 32 37 17 20 - - -
30/01:30pm - - - - - SE 28 39 15 21 - - -
30/01:00pm - - - - - SE 32 41 17 22 - - -
30/12:30pm - - - - - SE 32 39 17 21 - - -
30/12:00pm - - - - - SE 30 35 16 19 - - -
30/11:30am - - - - - SE 30 41 16 22 - - -
30/11:00am - - - - - SSE 33 41 18 22 - - -
30/10:45am - - - - - SSE 30 48 16 26 - - -
30/10:30am - - - - - SSE 32 39 17 21 - - -
30/10:00am - - - - - SSE 28 37 15 20 - - -
30/09:30am - - - - - SSE 32 37 17 20 - - -
30/09:00am - - - - - SSE 32 39 17 21 - - -
30/08:30am - - - - - SSE 28 37 15 20 - - -
30/08:00am - - - - - SSE 30 35 16 19 - - -
30/07:30am - - - - - S 28 33 15 18 - - -
30/07:00am - - - - - S 32 44 17 24 - - -
30/06:30am - - - - - S 33 39 18 21 - - -
30/06:00am - - - - - S 32 43 17 23 - - -
30/05:30am - - - - - S 28 37 15 20 - - -
30/05:00am - - - - - S 26 33 14 18 - - -
30/04:30am - - - - - S 26 32 14 17 - - -
30/04:00am - - - - - S 30 35 16 19 - - -
30/03:30am - - - - - S 28 35 15 19 - - -
30/03:00am - - - - - S 32 41 17 22 - - -
30/02:30am - - - - - S 32 39 17 21 - - -
30/02:00am - - - - - S 35 46 19 25 - - -
30/01:30am - - - - - S 32 43 17 23 - - -
30/01:00am - - - - - S 33 43 18 23 - - -
30/12:30am - - - - - S 33 41 18 22 - - -
30/12:00am - - - - - S 32 44 17 24 - - -
 
Date/Time
WST
Temp
°C
App
Temp
°C
Dew
Point
Rel
Hum
%
Delta-T
°C
Wind Press
QNH
hPa
Press
MSL
hPa
Rain
since 9 am
mm
Dir
 
Spd
km/h
Gust
km/h
Spd
kts
Gust
kts
29/11:30pm - - - - - S 32 39 17 21 - - -
29/11:00pm - - - - - S 32 39 17 21 - - -
29/10:30pm - - - - - S 35 44 19 24 - - -
29/10:00pm - - - - - SSW 33 44 18 24 - - -
29/09:30pm - - - - - S 32 46 17 25 - - -
29/09:00pm - - - - - S 35 50 19 27 - - -
29/08:30pm - - - - - SSW 37 52 20 28 - - -
29/08:00pm - - - - - S 39 54 21 29 - - -
29/07:30pm - - - - - S 35 48 19 26 - - -
29/07:00pm - - - - - S 46 59 25 32 - - -
29/06:49pm - - - - - S 46 67 25 36 - - -
29/06:30pm - - - - - SSW 48 61 26 33 - - -
29/06:00pm - - - - - SSW 44 57 24 31 - - -
29/05:30pm - - - - - SSW 43 56 23 30 - - -
29/05:00pm - - - - - SSW 44 56 24 30 - - -
29/04:30pm - - - - - SSW 35 48 19 26 - - -
29/04:00pm - - - - - SW 39 46 21 25 - - -
29/03:30pm - - - - - SW 35 43 19 23 - - -
29/03:00pm - - - - - SW 32 39 17 21 - - -
29/02:30pm - - - - - SW 33 41 18 22 - - -
29/02:00pm - - - - - SSW 33 39 18 21 - - -
29/01:30pm - - - - - SSW 32 41 17 22 - - -
29/01:00pm - - - - - S 26 32 14 17 - - -
29/12:30pm - - - - - SSW 30 39 16 21 - - -
29/12:00pm - - - - - SW 33 41 18 22 - - -
29/11:30am - - - - - SSW 33 46 18 25 - - -
29/11:00am - - - - - SSW 32 39 17 21 - - -
29/10:30am - - - - - SSW 28 33 15 18 - - -
29/10:00am - - - - - SSW 30 35 16 19 - - -
29/09:30am - - - - - SSW 28 37 15 20 - - -
29/09:00am - - - - - SSW 33 39 18 21 - - -
29/08:30am - - - - - SSW 32 39 17 21 - - -
29/08:00am - - - - - S 30 37 16 20 - - -
29/07:30am - - - - - SSW 33 41 18 22 - - -
29/07:00am - - - - - SSW 30 39 16 21 - - -
29/06:30am - - - - - SSW 32 37 17 20 - - -
29/06:00am - - - - - SSW 30 35 16 19 - - -
29/05:30am - - - - - SSW 26 30 14 16 - - -
29/05:00am - - - - - SSW 26 32 14 17 - - -
29/04:30am - - - - - SW 26 32 14 17 - - -
29/04:00am - - - - - SW 26 30 14 16 - - -
29/03:30am - - - - - SSW 22 26 12 14 - - -
29/03:00am - - - - - SSW 24 32 13 17 - - -
29/02:30am - - - - - SSW 26 32 14 17 - - -
29/02:00am - - - - - SSW 30 35 16 19 - - -
29/01:30am - - - - - SSW 32 37 17 20 - - -
29/01:00am - - - - - SSW 30 37 16 20 - - -
29/12:30am - - - - - SW 24 28 13 15 - - -
29/12:00am - - - - - SW 24 28 13 15 - - -
 
Date/Time
WST
Temp
°C
App
Temp
°C
Dew
Point
Rel
Hum
%
Delta-T
°C
Wind Press
QNH
hPa
Press
MSL
hPa
Rain
since 9 am
mm
Dir
 
Spd
km/h
Gust
km/h
Spd
kts
Gust
kts
28/11:30pm - - - - - SW 19 20 10 11 - - -
28/11:00pm - - - - - SW 19 22 10 12 - - -
28/10:30pm - - - - - SW 13 17 7 9 - - -
28/10:00pm - - - - - ESE 11 13 6 7 - - -
28/09:30pm - - - - - SE 11 11 6 6 - - -
28/09:00pm - - - - - SW 9 13 5 7 - - -
28/08:30pm - - - - - WNW 9 11 5 6 - - -
28/08:00pm - - - - - NW 9 11 5 6 - - -
28/07:30pm - - - - - W 13 15 7 8 - - -
28/07:00pm - - - - - WNW 15 20 8 11 - - -
28/06:30pm - - - - - N 17 19 9 10 - - -
28/06:00pm - - - - - N 15 17 8 9 - - -
28/05:30pm - - - - - NNE 13 15 7 8 - - -
28/05:00pm - - - - - NE 13 15 7 8 - - -
28/04:30pm - - - - - NE 11 13 6 7 - - -
28/04:00pm - - - - - NNW 17 17 9 9 - - -
28/03:30pm - - - - - NNW 20 26 11 14 - - -
28/03:00pm - - - - - NNW 15 20 8 11 - - -
28/02:30pm - - - - - N 11 13 6 7 - - -
28/02:00pm - - - - - NE 11 13 6 7 - - -
28/01:30pm - - - - - NE 9 13 5 7 - - -
28/01:00pm - - - - - NNE 9 11 5 6 - - -
28/12:30pm - - - - - NNE 11 13 6 7 - - -
28/12:00pm - - - - - NNE 11 15 6 8 - - -
28/11:30am - - - - - NNE 15 19 8 10 - - -
28/11:00am - - - - - NNE 15 20 8 11 - - -
28/10:30am - - - - - NE 9 9 5 5 - - -
28/10:00am - - - - - NE 6 7 3 4 - - -
28/09:30am - - - - - NE 9 9 5 5 - - -
28/09:00am - - - - - ESE 11 11 6 6 - - -
28/08:30am - - - - - ESE 17 19 9 10 - - -
28/08:00am - - - - - SE 15 17 8 9 - - -
28/07:30am - - - - - SE 17 20 9 11 - - -

Other Formats:

Comma delimited format used in spreadsheet applications
http://www.bom.gov.au/fwo/IDW60801/IDW60801.95602.axf

JavaScript Object Notation format (JSON) in row-major order
http://www.bom.gov.au/fwo/IDW60801/IDW60801.95602.json